sensor_id;sensor_type;location;lat;lon;timestamp;P1;durP1;ratioP1;P2;durP2;ratioP2
12124;SDS011;6126;57.908;16.490;2022-12-04T00:01:09;5.32;;;1.85;;
12124;SDS011;6126;57.908;16.490;2022-12-04T00:03:40;4.22;;;2.92;;
12124;SDS011;6126;57.908;16.490;2022-12-04T00:06:07;3.25;;;2.53;;
12124;SDS011;6126;57.908;16.490;2022-12-04T00:08:35;5.20;;;2.67;;
12124;SDS011;6126;57.908;16.490;2022-12-04T00:11:02;3.08;;;2.38;;
12124;SDS011;6126;57.908;16.490;2022-12-04T00:13:31;3.53;;;2.30;;
12124;SDS011;6126;57.908;16.490;2022-12-04T00:15:57;3.92;;;2.40;;
12124;SDS011;6126;57.908;16.490;2022-12-04T00:18:24;5.65;;;2.22;;
12124;SDS011;6126;57.908;16.490;2022-12-04T00:20:51;5.72;;;2.80;;
12124;SDS011;6126;57.908;16.490;2022-12-04T00:23:17;4.72;;;1.88;;
12124;SDS011;6126;57.908;16.490;2022-12-04T00:25:43;4.18;;;2.85;;
12124;SDS011;6126;57.908;16.490;2022-12-04T00:28:13;3.70;;;2.55;;
12124;SDS011;6126;57.908;16.490;2022-12-04T00:30:43;3.22;;;2.50;;
12124;SDS011;6126;57.908;16.490;2022-12-04T00:33:11;3.08;;;2.10;;
12124;SDS011;6126;57.908;16.490;2022-12-04T00:35:37;3.13;;;1.85;;
12124;SDS011;6126;57.908;16.490;2022-12-04T00:38:03;3.70;;;2.20;;
12124;SDS011;6126;57.908;16.490;2022-12-04T00:40:29;3.65;;;2.55;;
12124;SDS011;6126;57.908;16.490;2022-12-04T00:42:55;3.90;;;2.67;;
12124;SDS011;6126;57.908;16.490;2022-12-04T00:45:21;2.67;;;2.17;;
12124;SDS011;6126;57.908;16.490;2022-12-04T00:47:47;6.18;;;2.75;;
12124;SDS011;6126;57.908;16.490;2022-12-04T00:50:13;4.47;;;2.75;;
12124;SDS011;6126;57.908;16.490;2022-12-04T00:52:39;3.60;;;2.20;;
12124;SDS011;6126;57.908;16.490;2022-12-04T00:55:05;2.70;;;2.35;;
12124;SDS011;6126;57.908;16.490;2022-12-04T00:57:31;2.60;;;2.05;;
12124;SDS011;6126;57.908;16.490;2022-12-04T00:59:57;3.90;;;2.15;;
12124;SDS011;6126;57.908;16.490;2022-12-04T01:02:23;2.55;;;2.30;;
12124;SDS011;6126;57.908;16.490;2022-12-04T01:04:49;3.95;;;2.20;;
12124;SDS011;6126;57.908;16.490;2022-12-04T01:07:15;3.90;;;2.20;;
12124;SDS011;6126;57.908;16.490;2022-12-04T01:09:40;2.42;;;2.22;;
12124;SDS011;6126;57.908;16.490;2022-12-04T01:12:06;3.90;;;1.95;;
12124;SDS011;6126;57.908;16.490;2022-12-04T01:14:32;2.58;;;2.00;;
12124;SDS011;6126;57.908;16.490;2022-12-04T01:16:58;3.78;;;2.13;;
12124;SDS011;6126;57.908;16.490;2022-12-04T01:19:24;3.30;;;2.25;;
12124;SDS011;6126;57.908;16.490;2022-12-04T01:21:50;3.42;;;2.40;;
12124;SDS011;6126;57.908;16.490;2022-12-04T01:24:16;2.95;;;2.47;;
12124;SDS011;6126;57.908;16.490;2022-12-04T01:26:42;3.83;;;2.28;;
12124;SDS011;6126;57.908;16.490;2022-12-04T01:29:08;5.10;;;2.42;;
12124;SDS011;6126;57.908;16.490;2022-12-04T01:31:33;4.63;;;2.42;;
12124;SDS011;6126;57.908;16.490;2022-12-04T01:33:59;2.33;;;1.73;;
12124;SDS011;6126;57.908;16.490;2022-12-04T01:36:26;2.47;;;1.95;;
12124;SDS011;6126;57.908;16.490;2022-12-04T01:38:53;5.25;;;2.30;;
12124;SDS011;6126;57.908;16.490;2022-12-04T01:41:21;4.78;;;1.85;;
12124;SDS011;6126;57.908;16.490;2022-12-04T01:44:10;4.18;;;2.55;;
12124;SDS011;6126;57.908;16.490;2022-12-04T01:46:51;3.33;;;1.88;;
12124;SDS011;6126;57.908;16.490;2022-12-04T01:49:20;2.08;;;1.80;;
12124;SDS011;6126;57.908;16.490;2022-12-04T01:52:15;2.33;;;2.03;;
12124;SDS011;6126;57.908;16.490;2022-12-04T01:54:48;3.75;;;2.47;;
12124;SDS011;6126;57.908;16.490;2022-12-04T01:57:21;2.80;;;1.88;;
12124;SDS011;6126;57.908;16.490;2022-12-04T02:02:38;2.92;;;1.92;;
12124;SDS011;6126;57.908;16.490;2022-12-04T02:05:09;4.38;;;2.17;;
12124;SDS011;6126;57.908;16.490;2022-12-04T02:07:43;1.95;;;1.75;;
12124;SDS011;6126;57.908;16.490;2022-12-04T02:10:14;2.25;;;1.92;;
12124;SDS011;6126;57.908;16.490;2022-12-04T02:15:58;3.58;;;1.83;;
12124;SDS011;6126;57.908;16.490;2022-12-04T02:22:14;2.72;;;1.92;;
12124;SDS011;6126;57.908;16.490;2022-12-04T02:28:29;3.17;;;2.10;;
12124;SDS011;6126;57.908;16.490;2022-12-04T02:31:10;3.65;;;2.08;;
12124;SDS011;6126;57.908;16.490;2022-12-04T02:34:03;2.35;;;1.85;;
12124;SDS011;6126;57.908;16.490;2022-12-04T02:36:44;3.28;;;2.25;;
12124;SDS011;6126;57.908;16.490;2022-12-04T02:39:41;4.80;;;2.55;;
12124;SDS011;6126;57.908;16.490;2022-12-04T02:42:26;2.92;;;1.90;;
12124;SDS011;6126;57.908;16.490;2022-12-04T02:45:24;6.28;;;2.38;;
12124;SDS011;6126;57.908;16.490;2022-12-04T02:48:01;2.00;;;1.65;;
12124;SDS011;6126;57.908;16.490;2022-12-04T02:50:31;3.55;;;2.17;;
12124;SDS011;6126;57.908;16.490;2022-12-04T02:53:15;2.97;;;2.08;;
12124;SDS011;6126;57.908;16.490;2022-12-04T02:55:52;4.95;;;2.65;;
12124;SDS011;6126;57.908;16.490;2022-12-04T02:58:25;3.13;;;2.15;;
12124;SDS011;6126;57.908;16.490;2022-12-04T03:00:58;4.15;;;2.25;;
12124;SDS011;6126;57.908;16.490;2022-12-04T03:03:28;4.15;;;2.60;;
12124;SDS011;6126;57.908;16.490;2022-12-04T03:05:58;3.00;;;2.65;;
12124;SDS011;6126;57.908;16.490;2022-12-04T03:08:38;4.03;;;2.30;;
12124;SDS011;6126;57.908;16.490;2022-12-04T03:11:10;2.13;;;1.92;;
12124;SDS011;6126;57.908;16.490;2022-12-04T03:16:12;2.58;;;2.00;;
12124;SDS011;6126;57.908;16.490;2022-12-04T03:18:46;3.25;;;2.55;;
12124;SDS011;6126;57.908;16.490;2022-12-04T03:21:30;3.58;;;2.05;;
12124;SDS011;6126;57.908;16.490;2022-12-04T03:26:45;2.42;;;2.10;;
12124;SDS011;6126;57.908;16.490;2022-12-04T03:29:21;5.88;;;2.22;;
12124;SDS011;6126;57.908;16.490;2022-12-04T03:37:42;4.55;;;2.90;;
12124;SDS011;6126;57.908;16.490;2022-12-04T03:42:52;3.78;;;2.58;;
12124;SDS011;6126;57.908;16.490;2022-12-04T03:45:58;2.90;;;2.60;;
12124;SDS011;6126;57.908;16.490;2022-12-04T03:48:40;3.33;;;2.80;;
12124;SDS011;6126;57.908;16.490;2022-12-04T03:51:21;2.40;;;2.20;;
12124;SDS011;6126;57.908;16.490;2022-12-04T03:54:16;3.03;;;2.47;;
12124;SDS011;6126;57.908;16.490;2022-12-04T03:56:58;3.90;;;2.80;;
12124;SDS011;6126;57.908;16.490;2022-12-04T03:59:51;2.85;;;2.22;;
12124;SDS011;6126;57.908;16.490;2022-12-04T04:02:36;3.72;;;2.60;;
12124;SDS011;6126;57.908;16.490;2022-12-04T04:05:09;5.75;;;3.03;;
12124;SDS011;6126;57.908;16.490;2022-12-04T04:07:48;3.13;;;2.30;;
12124;SDS011;6126;57.908;16.490;2022-12-04T04:10:20;3.05;;;2.50;;
12124;SDS011;6126;57.908;16.490;2022-12-04T04:12:57;3.88;;;2.92;;
12124;SDS011;6126;57.908;16.490;2022-12-04T04:15:50;3.92;;;2.58;;
12124;SDS011;6126;57.908;16.490;2022-12-04T04:18:38;4.00;;;2.95;;
12124;SDS011;6126;57.908;16.490;2022-12-04T04:21:27;4.55;;;3.20;;
12124;SDS011;6126;57.908;16.490;2022-12-04T04:27:07;4.75;;;3.30;;
12124;SDS011;6126;57.908;16.490;2022-12-04T04:29:33;4.13;;;2.63;;
12124;SDS011;6126;57.908;16.490;2022-12-04T04:41:32;3.42;;;2.42;;
12124;SDS011;6126;57.908;16.490;2022-12-04T04:44:09;6.93;;;2.30;;
12124;SDS011;6126;57.908;16.490;2022-12-04T04:46:55;6.15;;;2.75;;
12124;SDS011;6126;57.908;16.490;2022-12-04T04:49:28;2.97;;;2.50;;
12124;SDS011;6126;57.908;16.490;2022-12-04T04:51:58;6.55;;;3.08;;
12124;SDS011;6126;57.908;16.490;2022-12-04T04:54:25;3.47;;;2.70;;
12124;SDS011;6126;57.908;16.490;2022-12-04T04:56:53;4.18;;;2.45;;
12124;SDS011;6126;57.908;16.490;2022-12-04T04:59:19;4.78;;;2.90;;
12124;SDS011;6126;57.908;16.490;2022-12-04T05:01:45;3.85;;;2.90;;
12124;SDS011;6126;57.908;16.490;2022-12-04T05:04:12;5.50;;;3.08;;
12124;SDS011;6126;57.908;16.490;2022-12-04T05:06:39;5.32;;;3.45;;
12124;SDS011;6126;57.908;16.490;2022-12-04T05:09:04;4.43;;;3.25;;
12124;SDS011;6126;57.908;16.490;2022-12-04T05:11:30;3.67;;;2.58;;
12124;SDS011;6126;57.908;16.490;2022-12-04T05:13:56;3.20;;;2.85;;
12124;SDS011;6126;57.908;16.490;2022-12-04T05:16:22;6.55;;;3.28;;
12124;SDS011;6126;57.908;16.490;2022-12-04T05:18:48;4.55;;;2.72;;
12124;SDS011;6126;57.908;16.490;2022-12-04T05:21:33;5.35;;;2.78;;
12124;SDS011;6126;57.908;16.490;2022-12-04T05:23:59;5.28;;;3.30;;
12124;SDS011;6126;57.908;16.490;2022-12-04T05:26:25;4.55;;;2.30;;
12124;SDS011;6126;57.908;16.490;2022-12-04T05:28:51;4.97;;;3.28;;
12124;SDS011;6126;57.908;16.490;2022-12-04T05:31:16;4.13;;;3.10;;
12124;SDS011;6126;57.908;16.490;2022-12-04T05:33:42;3.95;;;3.00;;
12124;SDS011;6126;57.908;16.490;2022-12-04T05:36:09;4.03;;;3.22;;
12124;SDS011;6126;57.908;16.490;2022-12-04T05:38:37;3.40;;;2.83;;
12124;SDS011;6126;57.908;16.490;2022-12-04T05:41:03;4.15;;;2.95;;
12124;SDS011;6126;57.908;16.490;2022-12-04T05:43:30;4.60;;;3.00;;
12124;SDS011;6126;57.908;16.490;2022-12-04T05:46:01;5.15;;;2.45;;
12124;SDS011;6126;57.908;16.490;2022-12-04T05:48:28;6.45;;;2.88;;
12124;SDS011;6126;57.908;16.490;2022-12-04T05:50:55;4.80;;;2.67;;
12124;SDS011;6126;57.908;16.490;2022-12-04T05:53:21;8.18;;;3.53;;
12124;SDS011;6126;57.908;16.490;2022-12-04T05:55:57;5.25;;;2.55;;
12124;SDS011;6126;57.908;16.490;2022-12-04T05:58:25;4.40;;;2.75;;
12124;SDS011;6126;57.908;16.490;2022-12-04T06:00:52;3.95;;;2.63;;
12124;SDS011;6126;57.908;16.490;2022-12-04T06:03:18;5.65;;;2.60;;
12124;SDS011;6126;57.908;16.490;2022-12-04T06:05:44;4.35;;;2.70;;
12124;SDS011;6126;57.908;16.490;2022-12-04T06:08:10;4.60;;;2.70;;
12124;SDS011;6126;57.908;16.490;2022-12-04T06:10:36;5.68;;;2.85;;
12124;SDS011;6126;57.908;16.490;2022-12-04T06:13:03;3.92;;;2.67;;
12124;SDS011;6126;57.908;16.490;2022-12-04T06:15:30;8.90;;;3.05;;
12124;SDS011;6126;57.908;16.490;2022-12-04T06:18:01;5.05;;;3.08;;
12124;SDS011;6126;57.908;16.490;2022-12-04T06:20:27;6.18;;;2.97;;
12124;SDS011;6126;57.908;16.490;2022-12-04T06:22:52;4.15;;;2.85;;
12124;SDS011;6126;57.908;16.490;2022-12-04T06:25:18;8.35;;;3.00;;
12124;SDS011;6126;57.908;16.490;2022-12-04T06:27:44;5.57;;;2.80;;
12124;SDS011;6126;57.908;16.490;2022-12-04T06:30:10;6.10;;;2.95;;
12124;SDS011;6126;57.908;16.490;2022-12-04T06:32:36;3.58;;;2.70;;
12124;SDS011;6126;57.908;16.490;2022-12-04T06:35:02;4.72;;;3.10;;
12124;SDS011;6126;57.908;16.490;2022-12-04T06:37:28;3.75;;;2.83;;
12124;SDS011;6126;57.908;16.490;2022-12-04T06:39:54;4.28;;;2.65;;
12124;SDS011;6126;57.908;16.490;2022-12-04T06:42:20;4.55;;;2.50;;
12124;SDS011;6126;57.908;16.490;2022-12-04T06:44:45;4.30;;;2.75;;
12124;SDS011;6126;57.908;16.490;2022-12-04T06:47:13;8.07;;;3.50;;
12124;SDS011;6126;57.908;16.490;2022-12-04T06:49:39;4.80;;;3.42;;
12124;SDS011;6126;57.908;16.490;2022-12-04T06:52:05;3.97;;;2.70;;
12124;SDS011;6126;57.908;16.490;2022-12-04T06:54:30;3.72;;;3.08;;
12124;SDS011;6126;57.908;16.490;2022-12-04T06:56:56;5.28;;;3.22;;
12124;SDS011;6126;57.908;16.490;2022-12-04T06:59:22;5.15;;;2.95;;
12124;SDS011;6126;57.908;16.490;2022-12-04T07:01:48;4.78;;;2.40;;
12124;SDS011;6126;57.908;16.490;2022-12-04T07:04:14;5.03;;;2.70;;
12124;SDS011;6126;57.908;16.490;2022-12-04T07:06:40;4.88;;;3.15;;
12124;SDS011;6126;57.908;16.490;2022-12-04T07:09:08;5.47;;;3.50;;
12124;SDS011;6126;57.908;16.490;2022-12-04T07:11:38;5.93;;;2.85;;
12124;SDS011;6126;57.908;16.490;2022-12-04T07:14:06;3.75;;;2.67;;
12124;SDS011;6126;57.908;16.490;2022-12-04T07:16:33;5.28;;;2.97;;
12124;SDS011;6126;57.908;16.490;2022-12-04T07:18:59;3.47;;;2.58;;
12124;SDS011;6126;57.908;16.490;2022-12-04T07:21:26;5.10;;;2.70;;
12124;SDS011;6126;57.908;16.490;2022-12-04T07:23:56;4.28;;;2.80;;
12124;SDS011;6126;57.908;16.490;2022-12-04T07:26:25;3.40;;;2.58;;
12124;SDS011;6126;57.908;16.490;2022-12-04T07:28:52;2.72;;;2.50;;
12124;SDS011;6126;57.908;16.490;2022-12-04T07:31:20;4.13;;;2.28;;
12124;SDS011;6126;57.908;16.490;2022-12-04T07:33:48;6.38;;;2.33;;
12124;SDS011;6126;57.908;16.490;2022-12-04T07:36:17;4.18;;;2.53;;
12124;SDS011;6126;57.908;16.490;2022-12-04T07:38:45;3.70;;;2.40;;
12124;SDS011;6126;57.908;16.490;2022-12-04T07:41:12;3.25;;;2.20;;
12124;SDS011;6126;57.908;16.490;2022-12-04T07:43:38;3.47;;;2.10;;
12124;SDS011;6126;57.908;16.490;2022-12-04T07:46:10;3.70;;;1.95;;
12124;SDS011;6126;57.908;16.490;2022-12-04T07:48:40;3.20;;;2.30;;
12124;SDS011;6126;57.908;16.490;2022-12-04T07:51:08;3.90;;;2.25;;
12124;SDS011;6126;57.908;16.490;2022-12-04T07:53:47;2.88;;;2.55;;
12124;SDS011;6126;57.908;16.490;2022-12-04T07:56:14;3.75;;;2.50;;
12124;SDS011;6126;57.908;16.490;2022-12-04T07:58:41;3.38;;;2.20;;
12124;SDS011;6126;57.908;16.490;2022-12-04T08:01:09;3.30;;;2.15;;
12124;SDS011;6126;57.908;16.490;2022-12-04T08:03:40;3.42;;;2.35;;
12124;SDS011;6126;57.908;16.490;2022-12-04T08:06:08;4.95;;;2.45;;
12124;SDS011;6126;57.908;16.490;2022-12-04T08:08:35;3.45;;;2.03;;
12124;SDS011;6126;57.908;16.490;2022-12-04T08:11:05;2.70;;;1.85;;
12124;SDS011;6126;57.908;16.490;2022-12-04T08:13:33;3.42;;;2.20;;
12124;SDS011;6126;57.908;16.490;2022-12-04T08:16:00;3.65;;;2.35;;
12124;SDS011;6126;57.908;16.490;2022-12-04T08:18:31;3.38;;;2.63;;
12124;SDS011;6126;57.908;16.490;2022-12-04T08:23:32;3.35;;;2.45;;
12124;SDS011;6126;57.908;16.490;2022-12-04T08:25:59;6.93;;;2.95;;
12124;SDS011;6126;57.908;16.490;2022-12-04T08:28:25;3.92;;;2.08;;
12124;SDS011;6126;57.908;16.490;2022-12-04T08:30:51;4.60;;;2.78;;
12124;SDS011;6126;57.908;16.490;2022-12-04T08:33:17;3.55;;;2.53;;
12124;SDS011;6126;57.908;16.490;2022-12-04T08:35:43;3.60;;;2.92;;
12124;SDS011;6126;57.908;16.490;2022-12-04T08:38:09;2.47;;;2.25;;
12124;SDS011;6126;57.908;16.490;2022-12-04T08:40:35;3.80;;;2.60;;
12124;SDS011;6126;57.908;16.490;2022-12-04T08:43:00;3.33;;;2.63;;
12124;SDS011;6126;57.908;16.490;2022-12-04T08:45:26;3.03;;;2.55;;
12124;SDS011;6126;57.908;16.490;2022-12-04T08:47:52;8.23;;;2.40;;
12124;SDS011;6126;57.908;16.490;2022-12-04T08:50:18;2.75;;;2.45;;
12124;SDS011;6126;57.908;16.490;2022-12-04T08:52:44;3.47;;;2.17;;
12124;SDS011;6126;57.908;16.490;2022-12-04T08:55:09;2.83;;;2.47;;
12124;SDS011;6126;57.908;16.490;2022-12-04T08:57:35;2.90;;;2.38;;
12124;SDS011;6126;57.908;16.490;2022-12-04T09:00:01;3.47;;;2.47;;
12124;SDS011;6126;57.908;16.490;2022-12-04T09:02:28;3.55;;;3.03;;
12124;SDS011;6126;57.908;16.490;2022-12-04T09:04:54;4.68;;;2.67;;
12124;SDS011;6126;57.908;16.490;2022-12-04T09:07:19;4.30;;;2.75;;
12124;SDS011;6126;57.908;16.490;2022-12-04T09:09:45;4.78;;;2.40;;
12124;SDS011;6126;57.908;16.490;2022-12-04T09:12:11;4.55;;;2.60;;
12124;SDS011;6126;57.908;16.490;2022-12-04T09:14:37;3.67;;;2.88;;
12124;SDS011;6126;57.908;16.490;2022-12-04T09:17:03;4.10;;;2.65;;
12124;SDS011;6126;57.908;16.490;2022-12-04T09:19:29;3.63;;;2.15;;
12124;SDS011;6126;57.908;16.490;2022-12-04T09:21:56;4.63;;;2.97;;
12124;SDS011;6126;57.908;16.490;2022-12-04T09:24:21;4.97;;;2.17;;
12124;SDS011;6126;57.908;16.490;2022-12-04T09:26:47;3.22;;;2.47;;
12124;SDS011;6126;57.908;16.490;2022-12-04T09:29:13;2.55;;;2.13;;
12124;SDS011;6126;57.908;16.490;2022-12-04T09:31:39;5.00;;;3.08;;
12124;SDS011;6126;57.908;16.490;2022-12-04T09:34:05;3.53;;;2.33;;
12124;SDS011;6126;57.908;16.490;2022-12-04T09:36:31;3.10;;;2.40;;
12124;SDS011;6126;57.908;16.490;2022-12-04T09:38:56;2.97;;;2.40;;
12124;SDS011;6126;57.908;16.490;2022-12-04T09:44:42;3.60;;;2.20;;
12124;SDS011;6126;57.908;16.490;2022-12-04T09:49:56;2.90;;;1.90;;
12124;SDS011;6126;57.908;16.490;2022-12-04T09:55:28;3.08;;;2.17;;
12124;SDS011;6126;57.908;16.490;2022-12-04T09:58:24;2.53;;;2.25;;
12124;SDS011;6126;57.908;16.490;2022-12-04T10:01:32;3.58;;;2.30;;
12124;SDS011;6126;57.908;16.490;2022-12-04T10:04:09;5.25;;;2.40;;
12124;SDS011;6126;57.908;16.490;2022-12-04T10:06:39;3.47;;;2.25;;
12124;SDS011;6126;57.908;16.490;2022-12-04T10:09:38;3.03;;;2.20;;
12124;SDS011;6126;57.908;16.490;2022-12-04T10:15:00;3.67;;;2.67;;
12124;SDS011;6126;57.908;16.490;2022-12-04T10:26:09;4.13;;;2.45;;
12124;SDS011;6126;57.908;16.490;2022-12-04T10:28:43;3.35;;;2.25;;
12124;SDS011;6126;57.908;16.490;2022-12-04T10:31:19;3.83;;;2.13;;
12124;SDS011;6126;57.908;16.490;2022-12-04T10:36:17;2.92;;;1.80;;
12124;SDS011;6126;57.908;16.490;2022-12-04T10:39:02;2.90;;;1.88;;
12124;SDS011;6126;57.908;16.490;2022-12-04T10:44:49;3.72;;;2.50;;
12124;SDS011;6126;57.908;16.490;2022-12-04T10:47:16;2.25;;;2.03;;
12124;SDS011;6126;57.908;16.490;2022-12-04T10:49:42;3.08;;;1.85;;
12124;SDS011;6126;57.908;16.490;2022-12-04T10:52:11;2.50;;;2.00;;
12124;SDS011;6126;57.908;16.490;2022-12-04T10:54:45;2.95;;;2.00;;
12124;SDS011;6126;57.908;16.490;2022-12-04T10:57:19;2.25;;;1.80;;
12124;SDS011;6126;57.908;16.490;2022-12-04T10:59:51;5.90;;;1.90;;
12124;SDS011;6126;57.908;16.490;2022-12-04T11:04:56;2.83;;;1.95;;
12124;SDS011;6126;57.908;16.490;2022-12-04T11:07:30;4.28;;;2.15;;
12124;SDS011;6126;57.908;16.490;2022-12-04T11:13:00;2.00;;;1.60;;
12124;SDS011;6126;57.908;16.490;2022-12-04T11:15:47;3.90;;;2.08;;
12124;SDS011;6126;57.908;16.490;2022-12-04T11:18:20;2.30;;;1.67;;
12124;SDS011;6126;57.908;16.490;2022-12-04T11:23:48;3.25;;;1.95;;
12124;SDS011;6126;57.908;16.490;2022-12-04T11:26:17;1.85;;;1.55;;
12124;SDS011;6126;57.908;16.490;2022-12-04T11:29:02;2.75;;;1.75;;
12124;SDS011;6126;57.908;16.490;2022-12-04T11:31:29;1.83;;;1.63;;
12124;SDS011;6126;57.908;16.490;2022-12-04T11:34:00;2.05;;;1.73;;
12124;SDS011;6126;57.908;16.490;2022-12-04T11:41:37;2.60;;;1.90;;
12124;SDS011;6126;57.908;16.490;2022-12-04T11:44:19;5.28;;;2.20;;
12124;SDS011;6126;57.908;16.490;2022-12-04T11:46:51;2.72;;;2.00;;
12124;SDS011;6126;57.908;16.490;2022-12-04T11:49:23;2.60;;;1.80;;
12124;SDS011;6126;57.908;16.490;2022-12-04T12:00:32;2.45;;;1.77;;
12124;SDS011;6126;57.908;16.490;2022-12-04T12:03:15;2.22;;;1.73;;
12124;SDS011;6126;57.908;16.490;2022-12-04T12:06:12;2.80;;;2.08;;
12124;SDS011;6126;57.908;16.490;2022-12-04T12:16:07;2.22;;;1.75;;
12124;SDS011;6126;57.908;16.490;2022-12-04T12:31:44;2.67;;;1.75;;
12124;SDS011;6126;57.908;16.490;2022-12-04T12:34:39;3.22;;;2.38;;
12124;SDS011;6126;57.908;16.490;2022-12-04T12:37:30;2.53;;;1.90;;
12124;SDS011;6126;57.908;16.490;2022-12-04T12:43:00;1.80;;;1.50;;
12124;SDS011;6126;57.908;16.490;2022-12-04T12:45:51;4.57;;;2.28;;
12124;SDS011;6126;57.908;16.490;2022-12-04T12:48:55;2.97;;;2.67;;
12124;SDS011;6126;57.908;16.490;2022-12-04T12:51:53;2.88;;;2.22;;
12124;SDS011;6126;57.908;16.490;2022-12-04T12:54:43;3.78;;;2.20;;
12124;SDS011;6126;57.908;16.490;2022-12-04T12:57:42;3.58;;;2.45;;
12124;SDS011;6126;57.908;16.490;2022-12-04T13:05:42;3.90;;;2.10;;
12124;SDS011;6126;57.908;16.490;2022-12-04T13:08:28;2.90;;;2.15;;
12124;SDS011;6126;57.908;16.490;2022-12-04T13:13:53;2.58;;;1.80;;
12124;SDS011;6126;57.908;16.490;2022-12-04T13:16:37;2.95;;;2.08;;
12124;SDS011;6126;57.908;16.490;2022-12-04T13:19:41;4.00;;;2.33;;
12124;SDS011;6126;57.908;16.490;2022-12-04T13:27:26;2.88;;;2.22;;
12124;SDS011;6126;57.908;16.490;2022-12-04T13:30:20;2.90;;;1.92;;
12124;SDS011;6126;57.908;16.490;2022-12-04T13:42:00;2.60;;;2.10;;
12124;SDS011;6126;57.908;16.490;2022-12-04T13:44:30;2.85;;;1.77;;
12124;SDS011;6126;57.908;16.490;2022-12-04T13:47:03;2.88;;;2.38;;
12124;SDS011;6126;57.908;16.490;2022-12-04T13:49:36;1.98;;;1.77;;
12124;SDS011;6126;57.908;16.490;2022-12-04T13:52:20;3.92;;;2.30;;
12124;SDS011;6126;57.908;16.490;2022-12-04T13:55:01;2.60;;;1.88;;
12124;SDS011;6126;57.908;16.490;2022-12-04T13:57:27;4.32;;;2.70;;
12124;SDS011;6126;57.908;16.490;2022-12-04T14:00:04;2.90;;;2.05;;
12124;SDS011;6126;57.908;16.490;2022-12-04T14:02:50;5.45;;;2.30;;
12124;SDS011;6126;57.908;16.490;2022-12-04T14:05:28;3.15;;;2.40;;
12124;SDS011;6126;57.908;16.490;2022-12-04T14:08:05;3.28;;;2.28;;
12124;SDS011;6126;57.908;16.490;2022-12-04T14:10:59;4.30;;;2.50;;
12124;SDS011;6126;57.908;16.490;2022-12-04T14:16:22;2.17;;;1.83;;
12124;SDS011;6126;57.908;16.490;2022-12-04T14:19:04;2.65;;;2.15;;
12124;SDS011;6126;57.908;16.490;2022-12-04T14:21:41;4.57;;;2.28;;
12124;SDS011;6126;57.908;16.490;2022-12-04T14:24:15;2.78;;;2.17;;
12124;SDS011;6126;57.908;16.490;2022-12-04T14:26:52;2.53;;;1.95;;
12124;SDS011;6126;57.908;16.490;2022-12-04T14:31:58;2.88;;;2.25;;
12124;SDS011;6126;57.908;16.490;2022-12-04T14:34:33;2.42;;;1.65;;
12124;SDS011;6126;57.908;16.490;2022-12-04T14:37:01;3.10;;;1.85;;
12124;SDS011;6126;57.908;16.490;2022-12-04T14:39:43;2.88;;;1.95;;
12124;SDS011;6126;57.908;16.490;2022-12-04T14:42:16;2.67;;;2.00;;
12124;SDS011;6126;57.908;16.490;2022-12-04T14:44:52;3.08;;;2.00;;
12124;SDS011;6126;57.908;16.490;2022-12-04T14:47:33;2.70;;;2.20;;
12124;SDS011;6126;57.908;16.490;2022-12-04T14:58:21;3.95;;;2.40;;
12124;SDS011;6126;57.908;16.490;2022-12-04T15:00:54;2.60;;;1.85;;
12124;SDS011;6126;57.908;16.490;2022-12-04T15:03:43;3.25;;;2.25;;
12124;SDS011;6126;57.908;16.490;2022-12-04T15:06:16;1.50;;;1.38;;
12124;SDS011;6126;57.908;16.490;2022-12-04T15:08:49;2.75;;;2.00;;
12124;SDS011;6126;57.908;16.490;2022-12-04T15:11:43;2.78;;;2.00;;
12124;SDS011;6126;57.908;16.490;2022-12-04T15:14:47;2.63;;;2.22;;
12124;SDS011;6126;57.908;16.490;2022-12-04T15:17:14;2.15;;;1.75;;
12124;SDS011;6126;57.908;16.490;2022-12-04T15:19:42;3.22;;;1.75;;
12124;SDS011;6126;57.908;16.490;2022-12-04T15:22:22;3.70;;;2.10;;
12124;SDS011;6126;57.908;16.490;2022-12-04T15:24:52;3.33;;;1.90;;
12124;SDS011;6126;57.908;16.490;2022-12-04T15:27:19;2.50;;;2.13;;
12124;SDS011;6126;57.908;16.490;2022-12-04T15:29:49;4.28;;;2.20;;
12124;SDS011;6126;57.908;16.490;2022-12-04T15:32:20;2.92;;;2.10;;
12124;SDS011;6126;57.908;16.490;2022-12-04T15:34:51;3.10;;;2.30;;
12124;SDS011;6126;57.908;16.490;2022-12-04T15:37:31;2.95;;;2.13;;
12124;SDS011;6126;57.908;16.490;2022-12-04T15:39:58;2.45;;;2.13;;
12124;SDS011;6126;57.908;16.490;2022-12-04T15:44:57;2.28;;;1.80;;
12124;SDS011;6126;57.908;16.490;2022-12-04T15:47:31;4.72;;;2.35;;
12124;SDS011;6126;57.908;16.490;2022-12-04T15:50:15;3.05;;;2.20;;
12124;SDS011;6126;57.908;16.490;2022-12-04T15:52:55;3.10;;;2.05;;
12124;SDS011;6126;57.908;16.490;2022-12-04T15:55:54;3.60;;;2.40;;
12124;SDS011;6126;57.908;16.490;2022-12-04T16:01:04;3.20;;;2.42;;
12124;SDS011;6126;57.908;16.490;2022-12-04T16:08:49;2.35;;;2.05;;
12124;SDS011;6126;57.908;16.490;2022-12-04T16:13:49;3.53;;;2.25;;
12124;SDS011;6126;57.908;16.490;2022-12-04T16:16:40;2.65;;;1.85;;
12124;SDS011;6126;57.908;16.490;2022-12-04T16:19:31;2.63;;;2.03;;
12124;SDS011;6126;57.908;16.490;2022-12-04T16:22:00;2.67;;;2.05;;
12124;SDS011;6126;57.908;16.490;2022-12-04T16:24:34;2.75;;;2.17;;
12124;SDS011;6126;57.908;16.490;2022-12-04T16:27:00;2.40;;;1.80;;
12124;SDS011;6126;57.908;16.490;2022-12-04T16:29:29;5.05;;;2.70;;
12124;SDS011;6126;57.908;16.490;2022-12-04T16:31:55;3.17;;;2.00;;
12124;SDS011;6126;57.908;16.490;2022-12-04T16:34:21;2.63;;;2.03;;
12124;SDS011;6126;57.908;16.490;2022-12-04T16:36:47;2.15;;;1.83;;
12124;SDS011;6126;57.908;16.490;2022-12-04T16:39:13;4.18;;;2.13;;
12124;SDS011;6126;57.908;16.490;2022-12-04T16:41:38;4.20;;;2.20;;
12124;SDS011;6126;57.908;16.490;2022-12-04T16:44:08;2.97;;;1.92;;
12124;SDS011;6126;57.908;16.490;2022-12-04T16:46:39;4.47;;;2.40;;
12124;SDS011;6126;57.908;16.490;2022-12-04T16:49:05;3.03;;;2.40;;
12124;SDS011;6126;57.908;16.490;2022-12-04T16:51:32;2.55;;;2.15;;
12124;SDS011;6126;57.908;16.490;2022-12-04T16:54:01;3.30;;;1.80;;
12124;SDS011;6126;57.908;16.490;2022-12-04T16:56:27;2.10;;;1.52;;
12124;SDS011;6126;57.908;16.490;2022-12-04T16:58:53;2.13;;;1.90;;
12124;SDS011;6126;57.908;16.490;2022-12-04T17:01:20;3.10;;;2.10;;
12124;SDS011;6126;57.908;16.490;2022-12-04T17:03:53;3.35;;;2.10;;
12124;SDS011;6126;57.908;16.490;2022-12-04T17:06:19;3.25;;;2.03;;
12124;SDS011;6126;57.908;16.490;2022-12-04T17:08:45;4.18;;;2.22;;
12124;SDS011;6126;57.908;16.490;2022-12-04T17:11:12;1.95;;;1.70;;
12124;SDS011;6126;57.908;16.490;2022-12-04T17:13:40;4.75;;;2.40;;
12124;SDS011;6126;57.908;16.490;2022-12-04T17:16:07;2.55;;;2.03;;
12124;SDS011;6126;57.908;16.490;2022-12-04T17:18:34;2.63;;;2.03;;
12124;SDS011;6126;57.908;16.490;2022-12-04T17:21:07;2.97;;;1.85;;
12124;SDS011;6126;57.908;16.490;2022-12-04T17:23:36;2.65;;;1.77;;
12124;SDS011;6126;57.908;16.490;2022-12-04T17:26:03;2.45;;;1.80;;
12124;SDS011;6126;57.908;16.490;2022-12-04T17:28:32;4.53;;;2.00;;
12124;SDS011;6126;57.908;16.490;2022-12-04T17:31:00;2.83;;;1.73;;
12124;SDS011;6126;57.908;16.490;2022-12-04T17:33:28;2.90;;;1.98;;
12124;SDS011;6126;57.908;16.490;2022-12-04T17:35:54;4.03;;;2.22;;
12124;SDS011;6126;57.908;16.490;2022-12-04T17:38:24;2.47;;;2.08;;
12124;SDS011;6126;57.908;16.490;2022-12-04T17:40:58;2.70;;;2.13;;
12124;SDS011;6126;57.908;16.490;2022-12-04T17:43:29;5.25;;;2.10;;
12124;SDS011;6126;57.908;16.490;2022-12-04T17:45:56;3.03;;;2.03;;
12124;SDS011;6126;57.908;16.490;2022-12-04T17:48:22;2.78;;;2.10;;
12124;SDS011;6126;57.908;16.490;2022-12-04T17:50:49;2.15;;;1.67;;
12124;SDS011;6126;57.908;16.490;2022-12-04T17:53:27;3.10;;;1.98;;
12124;SDS011;6126;57.908;16.490;2022-12-04T17:55:53;2.40;;;1.95;;
12124;SDS011;6126;57.908;16.490;2022-12-04T17:58:19;2.05;;;1.52;;
12124;SDS011;6126;57.908;16.490;2022-12-04T18:00:45;5.47;;;2.00;;